Time;durP1;ratioP1;P1;durP2;ratioP2;P2;SDS_P1;SDS_P2;PMS_P1;PMS_P2;Temp;Humidity;BMP_temperature;BMP_pressure;BME280_temperature;BME280_humidity;BME280_pressure;Samples;Min_cycle;Max_cycle;Signal;HPM_P1;HPM_P2
2021/04/15 00:00:52;;;;;;;1.67;1.00;;;;;;;8.35;43.32;102254.97;5071294;28;20031;-87
2021/04/15 00:03:22;;;;;;;3.35;0.90;;;;;;;8.09;43.16;102255.72;5071319;28;20387;-86
2021/04/15 00:05:49;;;;;;;2.25;0.90;;;;;;;8.01;43.00;102252.47;5071250;28;20020;-87
2021/04/15 00:08:17;;;;;;;3.95;1.17;;;;;;;8.09;43.11;102253.97;5071228;28;20479;-87
2021/04/15 00:10:45;;;;;;;1.83;1.20;;;;;;;7.95;43.40;102253.50;5071045;28;20471;-87
2021/04/15 00:13:25;;;;;;;2.40;0.73;;;;;;;8.11;43.29;102257.41;5071119;28;20103;-88
2021/04/15 00:15:51;;;;;;;1.65;1.08;;;;;;;8.07;43.19;102252.31;5071034;28;20036;-87
2021/04/15 00:18:17;;;;;;;2.35;0.90;;;;;;;8.07;43.01;102249.69;5071205;28;20027;-87
2021/04/15 00:20:43;;;;;;;2.08;1.10;;;;;;;7.99;43.09;102243.81;5071131;28;20497;-87
2021/04/15 00:23:09;;;;;;;1.52;0.80;;;;;;;8.06;43.20;102245.38;5073110;28;20028;-87
2021/04/15 00:25:35;;;;;;;4.28;0.93;;;;;;;7.97;43.63;102243.84;5057126;23;20116;-88
2021/04/15 00:28:00;;;;;;;2.20;0.98;;;;;;;7.83;43.52;102244.22;5035122;28;20026;-88
2021/04/15 00:30:25;;;;;;;2.22;1.13;;;;;;;7.97;44.02;102250.84;5035330;28;20026;-88
2021/04/15 00:32:51;;;;;;;3.72;0.82;;;;;;;7.98;44.34;102244.69;5035185;28;20030;-88
2021/04/15 00:35:19;;;;;;;1.23;0.80;;;;;;;8.03;44.73;102243.69;5048874;28;20658;-88
2021/04/15 00:37:44;;;;;;;2.28;1.00;;;;;;;7.91;44.29;102244.88;5054924;28;20028;-88
2021/04/15 00:40:11;;;;;;;4.10;1.00;;;;;;;7.75;44.51;102241.81;5055577;28;20437;-88
2021/04/15 00:42:38;;;;;;;0.80;0.80;;;;;;;7.88;44.28;102249.34;5055010;28;20112;-88
2021/04/15 00:45:11;;;;;;;0.80;0.70;;;;;;;7.89;44.18;102245.81;5054844;28;20021;-88
2021/04/15 00:47:39;;;;;;;1.05;0.90;;;;;;;7.71;45.01;102240.19;5054876;28;20472;-88
2021/04/15 00:50:19;;;;;;;2.10;1.00;;;;;;;7.74;44.58;102245.34;5054853;28;20029;-88
2021/04/15 00:52:50;;;;;;;1.95;0.90;;;;;;;7.75;44.22;102240.97;5053595;28;20025;-88
2021/04/15 00:55:21;;;;;;;2.28;1.20;;;;;;;7.77;45.27;102249.63;5040097;28;20029;-88
2021/04/15 00:57:48;;;;;;;2.78;1.27;;;;;;;7.70;45.08;102246.31;5054831;28;20503;-88
2021/04/15 01:00:18;;;;;;;5.68;2.55;;;;;;;7.74;45.76;102250.56;5053317;28;20130;-89
2021/04/15 01:02:43;;;;;;;3.58;1.77;;;;;;;7.51;45.71;102230.25;5054517;28;20483;-88
2021/04/15 01:05:29;;;;;;;3.58;1.50;;;;;;;7.70;45.80;102242.81;5054511;28;20040;-88
2021/04/15 01:07:55;;;;;;;2.08;1.48;;;;;;;7.62;46.06;102250.03;5055021;28;20048;-88
2021/04/15 01:10:22;;;;;;;3.95;1.80;;;;;;;7.74;45.71;102244.47;5045960;28;20033;-87
2021/04/15 01:12:57;;;;;;;4.47;1.73;;;;;;;7.81;45.80;102246.03;5034448;28;20519;-88
2021/04/15 01:15:44;;;;;;;3.47;1.48;;;;;;;7.73;45.69;102240.16;5032877;28;20022;-88
2021/04/15 01:18:17;;;;;;;2.97;1.80;;;;;;;7.50;46.21;102243.34;5034218;28;20101;-88
2021/04/15 01:21:22;;;;;;;3.97;1.60;;;;;;;7.38;46.57;102244.53;5034260;28;20024;-88
2021/04/15 01:23:59;;;;;;;2.22;1.52;;;;;;;7.48;46.36;102247.75;5034202;28;20387;-87
2021/04/15 01:26:50;;;;;;;2.85;1.67;;;;;;;7.41;46.09;102239.22;5034324;28;20032;-88
2021/04/15 01:29:25;;;;;;;2.92;1.52;;;;;;;7.50;46.42;102243.34;5034711;28;20021;-87
2021/04/15 01:32:14;;;;;;;5.60;1.80;;;;;;;7.48;46.32;102243.38;5034438;28;20079;-88
2021/04/15 01:34:45;;;;;;;2.65;1.77;;;;;;;7.27;47.49;102252.66;5034040;28;20472;-88
2021/04/15 01:37:17;;;;;;;13.18;2.00;;;;;;;7.26;47.59;102243.06;5034412;28;20033;-88
2021/04/15 01:39:47;;;;;;;6.57;2.42;;;;;;;7.16;48.67;102249.44;5034726;28;20037;-88
2021/04/15 01:42:24;;;;;;;3.03;1.77;;;;;;;7.15;47.88;102243.34;5034070;28;20030;-88
2021/04/15 01:45:00;;;;;;;3.58;1.77;;;;;;;6.85;49.12;102238.84;5033974;28;20022;-88
2021/04/15 01:47:31;;;;;;;7.93;3.20;;;;;;;6.75;49.23;102246.03;5034213;28;20026;-88
2021/04/15 01:50:04;;;;;;;5.90;1.88;;;;;;;6.77;49.59;102246.84;5034261;28;20026;-88
2021/04/15 01:52:31;;;;;;;2.53;1.98;;;;;;;6.68;49.60;102226.19;5034165;28;20041;-88
2021/04/15 01:55:18;;;;;;;2.55;2.03;;;;;;;7.00;48.69;102250.69;5033724;28;20037;-88
2021/04/15 01:58:06;;;;;;;3.50;2.10;;;;;;;6.72;48.89;102243.50;5034245;28;20112;-88
2021/04/15 02:00:33;;;;;;;3.55;2.25;;;;;;;6.66;49.33;102241.88;5030768;28;20041;-88
2021/04/15 02:03:04;;;;;;;4.82;2.42;;;;;;;6.46;49.77;102244.06;5033853;28;20028;-88
2021/04/15 02:05:38;;;;;;;4.45;1.95;;;;;;;6.54;49.79;102247.38;5033613;28;20514;-88
2021/04/15 02:08:10;;;;;;;5.93;1.92;;;;;;;6.73;49.19;102245.19;5033619;28;20102;-89
2021/04/15 02:10:40;;;;;;;4.72;2.10;;;;;;;6.61;49.25;102248.94;5038006;28;20546;-88
2021/04/15 02:13:08;;;;;;;3.10;1.92;;;;;;;6.63;49.07;102248.91;5053630;28;20032;-88
2021/04/15 02:15:45;;;;;;;4.00;2.03;;;;;;;6.47;49.48;102245.78;5053432;28;20024;-88
2021/04/15 02:18:15;;;;;;;6.97;1.73;;;;;;;6.39;49.91;102255.50;5052173;28;20111;-88
2021/04/15 02:20:40;;;;;;;2.80;1.73;;;;;;;6.37;49.39;102257.31;5053427;28;20032;-88
2021/04/15 02:23:17;;;;;;;3.08;1.73;;;;;;;6.30;50.09;102249.59;5046799;28;20384;-88
2021/04/15 02:25:52;;;;;;;2.90;1.58;;;;;;;6.25;49.95;102255.81;5043767;28;20067;-88
2021/04/15 02:28:26;;;;;;;3.17;1.45;;;;;;;6.18;50.51;102249.84;5053096;28;20036;-88
2021/04/15 02:31:18;;;;;;;5.68;1.75;;;;;;;6.24;50.00;102252.34;5053106;28;20414;-88
2021/04/15 02:33:50;;;;;;;6.20;1.67;;;;;;;6.18;49.75;102260.28;5052901;28;20443;-88
2021/04/15 02:36:17;;;;;;;2.25;1.38;;;;;;;6.17;50.43;102253.34;5052996;28;20029;-88
2021/04/15 02:38:51;;;;;;;5.55;1.52;;;;;;;6.24;50.19;102260.16;5040936;28;20029;-88
2021/04/15 02:41:21;;;;;;;3.08;1.60;;;;;;;6.08;50.37;102251.78;5034099;28;20539;-87
2021/04/15 02:44:00;;;;;;;5.97;1.52;;;;;;;6.07;49.98;102252.66;5032825;28;20076;-87
2021/04/15 02:46:45;;;;;;;5.10;2.30;;;;;;;6.09;50.36;102255.25;5032474;28;20033;-88
2021/04/15 02:49:13;;;;;;;3.22;1.60;;;;;;;5.83;51.02;102253.13;5032893;28;20032;-88
2021/04/15 02:51:48;;;;;;;2.00;1.25;;;;;;;5.87;51.61;102247.81;5031554;28;20025;-88
2021/04/15 02:54:25;;;;;;;1.45;1.00;;;;;;;6.00;51.65;102248.44;5032942;28;20076;-88
2021/04/15 02:57:17;;;;;;;2.65;1.40;;;;;;;5.89;52.25;102255.59;5032821;28;20041;-88
2021/04/15 03:00:01;;;;;;;;;;;;;;;5.91;51.76;102259.88;5041243;28;20032;-88
2021/04/15 03:02:29;;;;;;;4.78;1.40;;;;;;;5.84;52.08;102260.03;5031374;28;20004;-88
2021/04/15 03:05:19;;;;;;;3.47;1.80;;;;;;;5.86;51.91;102261.72;5037135;28;20013;-88
2021/04/15 03:07:45;;;;;;;3.50;1.65;;;;;;;5.73;52.45;102250.66;5038723;28;20029;-87
2021/04/15 03:10:14;;;;;;;3.08;1.35;;;;;;;5.84;52.70;102255.66;5032619;28;20029;-88
2021/04/15 03:12:50;;;;;;;2.03;1.45;;;;;;;5.74;52.73;102254.13;5031239;28;20426;-88
2021/04/15 03:15:25;;;;;;;4.88;1.60;;;;;;;5.68;53.23;102249.03;5032502;28;20017;-88
2021/04/15 03:17:54;;;;;;;4.20;1.70;;;;;;;5.67;53.31;102253.38;5031134;28;20112;-88
2021/04/15 03:20:35;;;;;;;1.70;1.15;;;;;;;5.79;52.58;102248.84;5032517;28;20024;-88
2021/04/15 03:23:40;;;;;;;2.00;1.47;;;;;;;5.87;52.68;102247.81;5051723;28;20371;-88
2021/04/15 03:26:33;;;;;;;2.60;1.50;;;;;;;5.77;52.67;102243.66;5061795;28;20037;-88
2021/04/15 03:29:29;;;;;;;5.75;1.63;;;;;;;5.66;52.99;102250.81;5055210;28;20051;-88
2021/04/15 03:32:06;;;;;;;7.43;1.60;;;;;;;5.57;53.59;102259.66;5054415;28;20037;-87
2021/04/15 03:35:10;;;;;;;1.42;1.33;;;;;;;5.68;53.08;102249.03;5063089;28;20476;-88
2021/04/15 03:38:13;;;;;;;2.50;1.33;;;;;;;5.64;53.50;102263.00;5061478;28;20112;-88
2021/04/15 03:40:45;;;;;;;4.35;1.70;;;;;;;5.55;53.76;102253.59;5077689;28;20037;-88
2021/04/15 03:43:12;;;;;;;;;;;;;;;5.63;53.57;102261.25;5078208;28;20013;-87
2021/04/15 03:45:45;;;;;;;3.40;1.60;;;;;;;5.39;54.50;102253.00;5077700;28;19960;-89
2021/04/15 03:48:17;;;;;;;5.07;1.65;;;;;;;5.41;54.12;102256.44;5077581;28;20021;-88
2021/04/15 03:51:05;;;;;;;6.13;1.55;;;;;;;5.39;54.51;102262.53;5063809;28;20089;-88
2021/04/15 03:53:42;;;;;;;3.85;1.40;;;;;;;5.36;54.95;102261.72;5056681;28;20021;-88
2021/04/15 03:56:18;;;;;;;2.33;1.45;;;;;;;5.39;55.04;102262.53;5056826;28;20037;-88
2021/04/15 03:58:48;;;;;;;3.67;1.55;;;;;;;5.24;55.63;102258.47;5059809;28;20021;-88
2021/04/15 04:01:24;;;;;;;3.65;1.60;;;;;;;5.24;55.48;102254.09;5061224;28;20021;-88
2021/04/15 04:04:07;;;;;;;2.42;1.70;;;;;;;5.32;55.61;102259.19;5061318;28;20089;-88
2021/04/15 04:06:39;;;;;;;5.05;1.30;;;;;;;5.35;55.40;102256.53;5061106;28;20041;-88
2021/04/15 04:09:11;;;;;;;4.55;1.45;;;;;;;5.45;54.74;102262.44;5057276;28;20009;-86
2021/04/15 04:11:38;;;;;;;3.05;1.52;;;;;;;5.41;54.86;102264.25;5057186;28;20033;-86
2021/04/15 04:14:35;;;;;;;4.10;1.67;;;;;;;5.53;54.84;102258.84;5056571;28;20029;-86
2021/04/15 04:17:09;;;;;;;2.95;1.60;;;;;;;5.42;55.01;102270.31;5051461;28;20385;-88
2021/04/15 04:19:41;;;;;;;1.83;1.70;;;;;;;5.45;55.09;102263.31;5053058;28;20025;-88
2021/04/15 04:22:20;;;;;;;4.15;1.85;;;;;;;5.43;55.26;102266.81;5035889;28;20483;-88
2021/04/15 04:25:07;;;;;;;3.97;1.60;;;;;;;5.22;56.06;102255.03;5037029;28;20099;-88
2021/04/15 04:27:50;;;;;;;5.15;1.67;;;;;;;5.43;55.82;102267.69;5035066;28;20033;-88
2021/04/15 04:30:24;;;;;;;4.15;1.40;;;;;;;5.39;56.49;102268.63;5036553;28;20030;-88
2021/04/15 04:32:55;;;;;;;1.98;1.63;;;;;;;5.43;56.15;102274.63;5036285;28;20029;-88
2021/04/15 04:35:25;;;;;;;2.58;1.60;;;;;;;5.11;57.54;102258.63;5036075;28;20022;-88
2021/04/15 04:37:57;;;;;;;2.30;1.45;;;;;;;5.29;57.24;102269.66;5035977;28;20025;-88
2021/04/15 04:40:34;;;;;;;5.50;1.67;;;;;;;5.12;57.26;102265.56;5036368;28;20028;-89
2021/04/15 04:43:14;;;;;;;2.55;1.73;;;;;;;5.29;57.28;102277.47;5036126;28;20032;-89
2021/04/15 04:45:40;;;;;;;5.13;2.47;;;;;;;5.30;57.01;102268.78;5034645;28;20379;-88
2021/04/15 04:48:27;;;;;;;3.28;1.65;;;;;;;5.21;57.85;102263.72;5034758;28;20026;-89
2021/04/15 04:51:01;;;;;;;3.00;1.50;;;;;;;5.24;57.72;102272.34;5053876;28;20071;-88
2021/04/15 04:53:30;;;;;;;7.05;1.80;;;;;;;5.22;58.32;102270.66;5054517;28;20032;-88
2021/04/15 04:56:23;;;;;;;6.18;1.60;;;;;;;5.39;57.76;102276.47;5054508;28;20028;-89
2021/04/15 04:59:17;;;;;;;3.25;1.70;;;;;;;5.46;58.05;102265.03;5054705;28;20032;-89
2021/04/15 05:01:43;;;;;;;1.90;1.48;;;;;;;4.82;59.69;102263.41;5047416;28;20470;-89
2021/04/15 05:04:09;;;;;;;3.53;2.30;;;;;;;5.23;58.46;102269.75;5055254;28;20052;-88
2021/04/15 05:06:40;;;;;;;4.20;1.83;;;;;;;5.07;59.32;102263.91;5056002;28;20021;-88
2021/04/15 05:09:19;;;;;;;4.13;1.90;;;;;;;5.03;59.74;102275.25;5055302;28;20064;-88
2021/04/15 05:11:47;;;;;;;7.40;1.80;;;;;;;5.07;59.39;102267.38;5055642;28;20056;-89
2021/04/15 05:14:16;;;;;;;8.55;2.25;;;;;;;5.26;58.88;102277.53;5053541;28;20016;-88
2021/04/15 05:16:46;;;;;;;3.42;1.50;;;;;;;5.16;59.63;102280.25;5053378;28;20120;-88
2021/04/15 05:19:12;;;;;;;4.32;1.83;;;;;;;5.16;58.64;102277.66;5044791;28;20911;-88
2021/04/15 05:21:39;;;;;;;6.38;1.98;;;;;;;5.34;58.48;102280.88;5045218;28;20112;-89
2021/04/15 05:24:17;;;;;;;2.80;1.83;;;;;;;5.32;58.39;102286.09;5054530;28;20037;-88
2021/04/15 05:26:45;;;;;;;5.55;1.98;;;;;;;5.26;59.34;102299.22;5053403;28;20491;-88
2021/04/15 05:29:16;;;;;;;5.05;3.97;;;;;;;5.38;58.47;102297.31;5054293;28;20017;-88
2021/04/15 05:31:45;;;;;;;4.00;2.00;;;;;;;5.49;58.02;102298.88;5054534;28;20029;-88
2021/04/15 05:34:21;;;;;;;4.47;2.15;;;;;;;5.69;57.89;102302.88;5054275;28;20422;-88
2021/04/15 05:36:48;;;;;;;2.40;1.95;;;;;;;5.43;58.94;102306.78;5052883;28;20029;-88
2021/04/15 05:39:17;;;;;;;5.28;1.67;;;;;;;5.57;59.07;102302.19;5054269;28;20427;-88
2021/04/15 05:41:58;;;;;;;4.07;2.00;;;;;;;5.73;57.91;102308.00;5054075;28;20479;-89
2021/04/15 05:44:42;;;;;;;4.50;2.20;;;;;;;5.35;58.86;102306.00;5053840;28;20748;-89
2021/04/15 05:47:25;;;;;;;3.47;2.00;;;;;;;5.68;58.26;102303.75;5053987;28;20037;-88
2021/04/15 05:50:05;;;;;;;4.50;2.00;;;;;;;5.71;58.24;102306.31;5054137;28;20057;-88
2021/04/15 05:52:34;;;;;;;4.00;2.28;;;;;;;5.35;59.25;102313.81;5053739;28;20036;-89
2021/04/15 05:55:06;;;;;;;4.25;1.80;;;;;;;5.42;60.01;102312.00;5053786;28;20029;-89
2021/04/15 05:57:37;;;;;;;1.92;1.73;;;;;;;5.73;58.18;102301.94;5053964;28;20063;-89
2021/04/15 06:00:12;;;;;;;2.20;1.77;;;;;;;5.80;58.17;102319.16;5052489;28;20031;-89
2021/04/15 06:03:00;;;;;;;3.70;1.80;;;;;;;5.89;58.05;102316.41;5053701;28;20383;-89
2021/04/15 06:05:27;;;;;;;2.78;1.90;;;;;;;5.82;58.39;102319.16;5044951;28;20075;-88
2021/04/15 06:07:56;;;;;;;3.92;2.25;;;;;;;5.81;58.51;102313.09;5052254;28;20112;-89
2021/04/15 06:10:29;;;;;;;2.78;2.20;;;;;;;5.84;58.37;102315.63;5053225;28;20049;-89
2021/04/15 06:12:59;;;;;;;3.90;1.90;;;;;;;5.89;57.74;102332.06;5051889;28;20033;-90
2021/04/15 06:15:41;;;;;;;5.03;2.22;;;;;;;6.15;57.46;102333.38;5040466;28;20059;-90
2021/04/15 06:18:25;;;;;;;2.50;1.85;;;;;;;6.05;57.75;102337.88;5032602;28;20391;-90
2021/04/15 06:20:58;;;;;;;4.50;2.45;;;;;;;6.24;57.15;102342.75;5031639;28;20022;-90
2021/04/15 06:23:32;;;;;;;6.40;2.30;;;;;;;6.33;56.58;102334.75;5032519;28;20427;-90
2021/04/15 06:25:59;;;;;;;6.05;1.90;;;;;;;6.18;56.69;102329.84;5033810;28;20041;-90
2021/04/15 06:28:30;;;;;;;2.72;1.85;;;;;;;6.27;56.98;102338.34;5036452;28;20040;-90
2021/04/15 06:31:05;;;;;;;3.47;2.20;;;;;;;6.43;57.02;102335.44;5050223;28;20479;-90
2021/04/15 06:33:30;;;;;;;4.68;2.67;;;;;;;6.47;57.14;102340.56;5052447;28;20345;-89
2021/04/15 06:35:58;;;;;;;6.25;2.45;;;;;;;6.71;56.03;102338.34;5053720;28;20511;-90
2021/04/15 06:38:36;;;;;;;2.42;1.88;;;;;;;6.87;55.86;102336.28;5053404;28;20388;-89
2021/04/15 06:41:25;;;;;;;6.30;1.85;;;;;;;7.11;54.52;102340.97;5053564;28;20029;-89
2021/04/15 06:44:43;;;;;;;3.17;2.03;;;;;;;7.15;55.53;102333.94;5054776;28;20116;-89
2021/04/15 06:47:39;;;;;;;6.55;2.58;;;;;;;7.99;54.16;102330.13;5016868;28;20414;-89
2021/04/15 06:50:21;;;;;;;5.28;2.00;;;;;;;8.56;52.76;102339.94;5051764;28;20021;-88
2021/04/15 06:53:21;;;;;;;3.22;1.75;;;;;;;10.52;47.96;102329.19;5059331;28;20064;-96
2021/04/15 06:56:07;;;;;;;13.57;2.70;;;;;;;11.86;44.55;102339.69;5055660;28;20025;-96
2021/04/15 06:58:51;;;;;;;5.45;1.90;;;;;;;12.93;41.61;102333.19;5038664;28;20037;-96
2021/04/15 07:01:44;;;;;;;4.10;1.92;;;;;;;13.40;39.96;102333.59;5036167;28;20454;-95
2021/04/15 07:04:15;;;;;;;3.75;1.95;;;;;;;14.05;38.19;102325.91;5036882;28;20029;-93
2021/04/15 07:06:45;;;;;;;2.67;1.38;;;;;;;14.54;36.80;102338.31;5041895;28;20045;-93
2021/04/15 07:09:55;;;;;;;3.60;1.52;;;;;;;15.44;35.25;102336.84;5045961;28;20025;-92
2021/04/15 07:12:58;;;;;;;4.45;1.63;;;;;;;15.95;34.13;102341.88;5036219;28;20047;-93
2021/04/15 07:15:49;;;;;;;5.20;1.88;;;;;;;16.13;34.37;102343.41;5053359;28;20021;-92
2021/04/15 07:18:59;;;;;;;2.97;1.40;;;;;;;16.56;33.05;102330.16;5035300;28;20065;-92
2021/04/15 07:21:49;;;;;;;4.03;1.30;;;;;;;17.57;32.12;102340.50;4996477;28;20042;-92
2021/04/15 07:24:37;;;;;;;3.33;1.60;;;;;;;17.54;31.42;102338.06;5049927;28;20036;-92
2021/04/15 07:27:21;;;;;;;3.72;1.65;;;;;;;17.51;31.00;102338.25;5046419;28;20022;-91
2021/04/15 07:30:11;;;;;;;5.50;1.42;;;;;;;18.10;30.56;102341.34;5034228;28;20036;-92
2021/04/15 07:33:13;;;;;;;5.28;1.92;;;;;;;18.55;30.21;102336.44;5041816;28;20032;-91
2021/04/15 07:35:39;;;;;;;5.60;1.50;;;;;;;18.86;28.72;102341.38;5054780;28;20029;-92
2021/04/15 07:38:22;;;;;;;2.50;1.10;;;;;;;19.54;28.41;102346.09;5049889;28;20020;-92
2021/04/15 07:41:22;;;;;;;3.08;1.10;;;;;;;19.72;27.63;102341.22;5046006;28;20021;-92
2021/04/15 07:43:54;;;;;;;4.53;1.27;;;;;;;19.35;28.81;102343.97;5046468;28;20059;-93
2021/04/15 07:46:19;;;;;;;5.20;0.93;;;;;;;19.08;27.79;102340.69;5051693;28;20029;-90
2021/04/15 07:49:26;;;;;;;5.25;1.40;;;;;;;19.10;28.60;102344.94;5048531;28;20044;-90
2021/04/15 07:52:10;;;;;;;2.25;1.30;;;;;;;19.88;27.69;102340.03;5031656;28;20040;-90
2021/04/15 07:54:52;;;;;;;3.40;1.15;;;;;;;20.49;27.24;102343.25;5043355;28;20025;-92
2021/04/15 07:57:52;;;;;;;4.47;1.83;;;;;;;20.75;26.85;102337.66;5039149;28;20032;-91
2021/04/15 08:00:35;;;;;;;3.42;1.20;;;;;;;20.69;27.01;102328.31;5052383;28;20060;-90
2021/04/15 08:03:35;;;;;;;2.50;0.82;;;;;;;21.14;27.13;102327.38;5043305;28;20033;-92
2021/04/15 08:06:28;;;;;;;6.15;0.90;;;;;;;21.77;25.22;102331.00;5043873;28;20040;-90
2021/04/15 08:09:31;;;;;;;5.93;1.08;;;;;;;22.08;25.17;102333.72;5053407;28;20540;-93
2021/04/15 08:12:24;;;;;;;3.65;1.27;;;;;;;23.12;23.89;102330.84;5042986;28;20056;-93
2021/04/15 08:14:58;;;;;;;3.58;0.95;;;;;;;23.73;23.22;102335.88;5041638;28;20036;-93
2021/04/15 08:17:36;;;;;;;2.90;1.05;;;;;;;23.77;22.86;102336.44;5046358;28;20037;-94
2021/04/15 08:20:09;;;;;;;3.08;0.60;;;;;;;23.67;22.98;102336.47;5043213;28;20039;-94
2021/04/15 08:23:08;;;;;;;1.77;0.85;;;;;;;23.49;22.87;102336.34;5049903;28;20025;-94
2021/04/15 08:25:42;;;;;;;2.60;0.82;;;;;;;23.35;23.07;102347.50;5034162;28;20036;-93
2021/04/15 08:28:25;;;;;;;3.13;0.70;;;;;;;22.85;23.48;102340.38;5046203;28;20056;-93
2021/04/15 08:30:56;;;;;;;4.43;0.80;;;;;;;23.64;23.02;102339.44;5041986;28;20032;-93
2021/04/15 08:33:46;;;;;;;5.00;0.63;;;;;;;23.45;23.04;102334.09;5034011;28;20022;-95
2021/04/15 08:36:18;;;;;;;3.05;0.80;;;;;;;23.37;22.90;102340.16;5044235;28;20040;-95
2021/04/15 08:39:21;;;;;;;3.72;1.15;;;;;;;23.92;22.44;102348.44;5045098;28;20037;-96
2021/04/15 08:42:01;;;;;;;3.00;0.60;;;;;;;24.11;21.68;102336.81;5041711;28;20427;-96
2021/04/15 08:44:31;;;;;;;3.53;0.55;;;;;;;23.93;22.00;102338.56;5055661;28;20051;-96
2021/04/15 08:47:32;;;;;;;3.75;0.95;;;;;;;24.04;22.24;102329.50;5048965;28;20033;-96
2021/04/15 08:50:16;;;;;;;18.77;1.98;;;;;;;24.14;22.38;102341.03;5046391;28;20037;-96
2021/04/15 08:53:19;;;;;;;3.25;0.85;;;;;;;24.49;22.06;102336.81;5048443;28;20447;-95
2021/04/15 08:58:45;;;;;;;1.45;0.57;;;;;;;24.67;20.80;102334.19;5134277;22;20053;-96
2021/04/15 09:01:50;;;;;;;3.75;0.80;;;;;;;25.40;20.08;102330.59;5053531;28;20029;-96
2021/04/15 09:04:17;;;;;;;2.80;0.70;;;;;;;25.41;19.52;102332.28;5008376;28;20056;-96
2021/04/15 09:07:12;;;;;;;2.58;0.60;;;;;;;25.67;20.03;102335.84;5027619;28;20029;-95
2021/04/15 09:10:11;;;;;;;6.53;0.73;;;;;;;26.67;18.78;102322.75;5034340;28;20029;-95
2021/04/15 09:13:08;;;;;;;1.83;0.65;;;;;;;26.86;18.66;102327.03;5034996;28;20057;-96
2021/04/15 09:15:52;;;;;;;2.20;0.60;;;;;;;26.80;19.52;102333.09;5025671;28;20112;-95
2021/04/15 09:18:34;;;;;;;1.65;0.60;;;;;;;26.83;18.02;102327.34;5031811;28;20056;-96
2021/04/15 09:21:19;;;;;;;3.33;0.63;;;;;;;26.94;17.73;102333.47;5028101;28;20030;-95
2021/04/15 09:23:55;;;;;;;2.33;0.73;;;;;;;26.51;18.28;102328.91;5033875;28;20040;-94
2021/04/15 09:27:15;;;;;;;6.13;1.90;;;;;;;26.77;17.56;102325.31;5035504;28;20036;-96
2021/04/15 09:29:49;;;;;;;0.40;0.20;;;;;;;26.11;16.85;102333.13;4956198;29;20030;-96
2021/04/15 09:32:38;;;;;;;0.93;0.30;;;;;;;26.03;16.91;102330.38;5024994;28;20036;-94
2021/04/15 09:35:38;;;;;;;3.53;0.85;;;;;;;26.20;18.06;102333.16;5044055;28;20019;-95
2021/04/15 09:40:54;;;;;;;2.13;0.70;;;;;;;27.14;17.19;102315.94;5296297;22;20025;-96
2021/04/15 09:48:59;;;;;;;1.30;0.70;;;;;;;26.96;16.15;102318.78;5769367;23;20526;-96
2021/04/15 09:59:27;;;;;;;1.60;0.65;;;;;;;26.97;16.96;102316.94;5201563;22;20051;-96
2021/04/15 10:07:19;;;;;;;3.00;0.75;;;;;;;28.29;16.42;102305.00;5160153;22;20770;-96
2021/04/15 10:09:57;;;;;;;;;;;;;;;28.29;15.78;102313.94;5030782;28;20026;-96
2021/04/15 11:14:20;;;;;;;2.97;1.15;;;;;;;27.24;15.90;102261.88;5042255;28;20054;-96
2021/04/15 11:16:51;;;;;;;3.65;1.10;;;;;;;26.43;16.24;102255.34;5027522;28;20029;-96
2021/04/15 11:19:17;;;;;;;1.73;0.40;;;;;;;26.75;16.40;102261.81;5023517;28;20116;-96
2021/04/15 11:21:44;;;;;;;2.08;0.57;;;;;;;26.42;17.37;102254.50;5041969;28;20510;-96
2021/04/15 11:24:36;;;;;;;4.63;0.88;;;;;;;26.14;17.56;102261.13;5021389;28;20080;-96
2021/04/15 11:27:06;;;;;;;1.35;0.70;;;;;;;25.93;18.63;102262.38;5017857;28;20080;-96
2021/04/15 11:29:43;;;;;;;3.25;0.60;;;;;;;25.97;17.88;102268.25;5021572;28;20033;-95
2021/04/15 11:32:38;;;;;;;3.78;0.52;;;;;;;26.99;16.48;102259.16;5032584;28;20089;-96
2021/04/15 11:35:08;;;;;;;2.20;0.30;;;;;;;27.06;16.25;102262.88;5014286;28;20392;-96
2021/04/15 11:37:38;;;;;;;1.98;0.90;;;;;;;27.02;16.77;102261.53;5021527;28;20522;-96
2021/04/15 11:40:18;;;;;;;3.72;0.93;;;;;;;26.88;16.83;102259.50;5019645;28;20057;-96
2021/04/15 11:42:44;;;;;;;3.83;0.75;;;;;;;26.10;17.48;102261.44;5019335;28;20035;-96
2021/04/15 11:45:12;;;;;;;5.45;0.88;;;;;;;26.41;18.02;102260.88;5037119;28;20052;-94
2021/04/15 11:47:38;;;;;;;2.00;0.60;;;;;;;25.97;17.78;102254.81;5042709;28;20025;-96
2021/04/15 11:50:12;;;;;;;4.75;0.60;;;;;;;27.12;17.02;102249.72;5016662;28;20101;-96
2021/04/15 11:52:41;;;;;;;2.13;0.60;;;;;;;27.57;16.58;102257.28;5022307;28;20021;-96
2021/04/15 11:55:21;;;;;;;1.90;0.60;;;;;;;27.84;15.87;102242.56;5015399;28;20470;-96
2021/04/15 11:57:55;;;;;;;1.43;0.43;;;;;;;27.62;16.24;102244.09;5004757;28;20037;-94
2021/04/15 12:00:35;;;;;;;2.05;0.50;;;;;;;27.63;16.18;102232.31;5015950;28;20403;-93
2021/04/15 12:03:00;;;;;;;4.60;0.70;;;;;;;27.10;16.53;102244.50;5018482;28;20029;-93
2021/04/15 12:05:38;;;;;;;3.78;0.50;;;;;;;26.49;17.97;102228.56;5016633;28;20074;-92
2021/04/15 12:08:26;;;;;;;3.33;0.70;;;;;;;24.90;20.50;102230.69;5037256;28;20036;-94
2021/04/15 12:11:01;;;;;;;1.55;0.60;;;;;;;24.60;18.78;102233.72;5015790;28;20095;-94
2021/04/15 12:13:39;;;;;;;3.97;0.70;;;;;;;25.10;18.49;102222.44;5192516;22;20063;-96
2021/04/15 12:16:27;;;;;;;1.88;0.50;;;;;;;24.56;19.80;102232.34;5045178;28;20021;-96
2021/04/15 12:19:05;;;;;;;1.60;0.55;;;;;;;25.66;18.12;102225.72;5048270;28;20521;-93
2021/04/15 12:21:53;;;;;;;2.10;0.93;;;;;;;25.38;18.52;102217.81;5072576;28;20047;-91
2021/04/15 12:24:34;;;;;;;3.63;0.60;;;;;;;25.09;17.89;102218.06;5072475;28;20111;-93
2021/04/15 12:27:03;;;;;;;1.63;0.75;;;;;;;26.52;18.60;102205.84;5065007;28;20036;-94
2021/04/15 12:29:41;;;;;;;0.63;0.32;;;;;;;26.31;17.76;102203.63;5055768;28;20023;-93
2021/04/15 12:32:20;;;;;;;2.33;0.52;;;;;;;27.83;16.11;102203.06;5050827;28;20107;-93
2021/04/15 12:34:59;;;;;;;0.85;0.35;;;;;;;28.05;15.43;102187.97;5069385;28;20021;-92
2021/04/15 12:37:34;;;;;;;1.25;0.40;;;;;;;27.20;16.10;102202.03;5074666;28;20035;-94
2021/04/15 12:40:00;;;;;;;1.60;0.63;;;;;;;27.27;16.59;102207.59;5075057;28;20038;-94
2021/04/15 12:42:26;;;;;;;1.35;0.65;;;;;;;26.96;16.29;102200.19;5078771;28;20103;-92
2021/04/15 12:44:56;;;;;;;5.28;0.65;;;;;;;27.06;17.46;102191.94;5072826;28;20052;-93
2021/04/15 12:47:22;;;;;;;2.38;0.70;;;;;;;26.87;16.11;102215.50;5063807;28;20112;-91
2021/04/15 12:49:48;;;;;;;1.65;0.60;;;;;;;26.49;17.13;102215.09;5075242;28;20421;-92
2021/04/15 12:52:14;;;;;;;2.47;0.90;;;;;;;27.00;16.32;102214.19;5069631;28;20115;-92
2021/04/15 12:54:42;;;;;;;1.35;0.50;;;;;;;25.91;17.11;102207.88;5065118;28;20025;-89
2021/04/15 12:57:11;;;;;;;2.10;0.70;;;;;;;25.95;16.14;102211.06;5057405;28;20033;-90
2021/04/15 12:59:44;;;;;;;1.88;0.50;;;;;;;25.48;16.97;102209.63;5062186;28;20024;-92
2021/04/15 13:02:18;;;;;;;0.55;0.30;;;;;;;26.36;16.00;102212.03;5047209;28;20056;-93
2021/04/15 13:04:54;;;;;;;1.80;0.57;;;;;;;26.03;16.30;102195.81;5058406;28;20027;-93
2021/04/15 13:07:22;;;;;;;0.75;0.45;;;;;;;26.25;16.37;102204.28;5056224;28;20021;-91
2021/04/15 13:09:51;;;;;;;1.67;0.68;;;;;;;24.95;18.20;102200.66;5063225;28;20024;-92
2021/04/15 13:12:19;;;;;;;1.60;0.75;;;;;;;24.76;18.21;102201.66;5044668;28;20047;-91
2021/04/15 13:14:50;;;;;;;3.75;0.63;;;;;;;24.80;19.69;102194.13;5044230;28;20025;-92
2021/04/15 13:17:34;;;;;;;2.88;1.00;;;;;;;23.13;19.84;102201.25;5059877;28;20108;-91
2021/04/15 13:20:05;;;;;;;6.20;0.88;;;;;;;22.49;20.25;102198.13;5067548;28;20033;-91
2021/04/15 13:22:35;;;;;;;6.18;1.08;;;;;;;21.98;20.26;102193.75;5060983;28;20028;-91
2021/04/15 13:25:01;;;;;;;2.55;0.70;;;;;;;22.42;19.79;102186.28;5066962;28;20057;-90
2021/04/15 13:27:36;;;;;;;3.15;0.80;;;;;;;22.54;20.21;102187.84;5069561;28;20016;-90
2021/04/15 13:30:20;;;;;;;8.55;1.20;;;;;;;22.26;21.83;102178.78;5065137;28;20022;-92
2021/04/15 13:33:11;;;;;;;8.00;1.52;;;;;;;20.72;22.78;102188.44;5075079;28;20070;-91
2021/04/15 13:35:49;;;;;;;2.63;0.70;;;;;;;19.97;22.92;102174.03;5064952;28;20032;-92
2021/04/15 13:38:31;;;;;;;1.55;0.70;;;;;;;20.12;23.07;102183.47;5075307;28;20108;-90
2021/04/15 13:41:00;;;;;;;6.15;0.80;;;;;;;20.24;25.17;102178.09;5056056;28;20020;-92
2021/04/15 13:43:37;;;;;;;3.35;0.68;;;;;;;19.58;24.54;102176.19;5068488;28;20060;-91
2021/04/15 13:46:31;;;;;;;1.77;0.80;;;;;;;20.51;22.74;102169.69;5054026;28;20035;-91